Aérodrome :
LOGIN :

S'inscrire | Disclaimer

   EN    FR    IT 

 










Légende :    VFR   VFR Marginal   IFR   IFR Intensif   IFR Très Intensif
Visi : 
Plafond : 
>= 8 km
>= 3000ft
5 à 8 km
1000 à 3000 ft
1500m à 5 km
500 à 1000 ft
800 à 1500m
200 à 500 ft
< 800m
< 200 ft
Symboles :   Orages  Brouillard  Fortes neiges  Fortes précipitations  Vent > 20 kt
SIGMETs :   Divers  Orages  Givrage  Turbulence  Onde Orograph.  Cendres Volcan.






- Altitude de l'aérodrome : 425 ft
- Code IATA : DTM


EDLW - Dortmund

DERNIER METAR :
  • 240250Z AUTO 00000KT 7000 // NCD M03/M04 Q1024

METARs EXPIRÉS :
  • 240220Z AUTO 00000KT 7000 // NCD M03/M03 Q1024
  • 240150Z AUTO 00000KT 5000 // NCD M03/M03 Q1024
  • 240120Z AUTO 00000KT 5000 // NCD M02/M02 Q1024
  • 240050Z AUTO 16004KT 5000 // NCD M02/M02 Q1025
  • 240020Z AUTO 16004KT 6000 // NCD M02/M02 Q1025

TAF TAF EDLW
Valide du 23 à 18h jusqu'au 24 à 18h UTC


231700Z 2318/2418 17003KT 9999 FEW015
TEMPO 2402/2410 4000 BR BKN008
PROB30
TEMPO 2402/2407 0500 FZFG BKN003



MET'MAP, la Météo Aéronautique d'un coup d'oeil ! - Copyright ORBIFLY Décembre 2007 - Disclaimer

ORBIFLY MET'MAP TEAM :

Programmation & Développement : Alexandra Zaïnal
Sur une idée originale de : Baudouin d'Aumeries
Assistance à la programmation : Marc-Olivier Méhu
Soutien technique & logistique : Manuel Goepfert

Contact : metmap@orbifly.com




SOURCES & CREDITS :

   NOAA